createdAt,value
2018-05-27T00:00:31.189Z,81.60
2018-05-27T00:02:58.724Z,81.80
2018-05-27T00:05:26.240Z,82.00
2018-05-27T00:07:53.764Z,82.40
2018-05-27T00:10:21.293Z,82.80
2018-05-27T00:12:49.597Z,82.90
2018-05-27T00:15:17.123Z,82.80
2018-05-27T00:17:44.665Z,82.10
2018-05-27T00:20:13.704Z,82.10
2018-05-27T00:22:41.999Z,83.00
2018-05-27T00:25:09.519Z,83.00
2018-05-27T00:27:37.135Z,82.50
2018-05-27T00:30:04.657Z,82.90
2018-05-27T00:32:32.986Z,83.50
2018-05-27T00:35:00.502Z,83.40
2018-05-27T00:37:28.107Z,83.20
2018-05-27T00:39:55.641Z,83.10
2018-05-27T00:42:24.061Z,83.20
2018-05-27T00:44:51.622Z,83.10
2018-05-27T00:47:19.150Z,83.10
2018-05-27T00:49:46.676Z,83.10
2018-05-27T00:52:14.196Z,83.00
2018-05-27T00:54:42.496Z,83.90
2018-05-27T00:57:10.026Z,83.90
2018-05-27T00:59:38.338Z,84.40
2018-05-27T01:02:06.625Z,84.40
2018-05-27T01:04:34.188Z,84.30
2018-05-27T01:07:01.732Z,84.90
2018-05-27T01:09:29.256Z,84.50
2018-05-27T01:11:56.799Z,84.30
2018-05-27T01:14:24.321Z,84.20
2018-05-27T01:16:52.631Z,84.70
2018-05-27T01:19:20.150Z,84.70
2018-05-27T01:21:48.469Z,85.60
2018-05-27T01:24:15.997Z,85.60
2018-05-27T01:26:44.309Z,85.30
2018-05-27T01:29:11.841Z,85.30
2018-05-27T01:31:39.389Z,85.10
2018-05-27T01:34:06.905Z,85.40
2018-05-27T01:36:34.453Z,85.50
2018-05-27T01:39:02.750Z,85.60
2018-05-27T01:41:30.287Z,85.60
2018-05-27T01:43:58.593Z,86.60
2018-05-27T01:46:26.121Z,86.50
2018-05-27T01:48:54.426Z,87.20
2018-05-27T01:51:21.952Z,86.80
2018-05-27T01:53:49.571Z,87.60
2018-05-27T01:56:17.134Z,87.70
2018-05-27T01:58:44.690Z,88.10
2018-05-27T02:01:12.207Z,88.10
2018-05-27T02:03:39.725Z,88.00
2018-05-27T02:06:07.262Z,88.40
2018-05-27T02:08:35.585Z,89.00
2018-05-27T02:11:03.139Z,88.80
2018-05-27T02:13:30.659Z,88.60
2018-05-27T02:15:58.207Z,88.40
2018-05-27T02:18:25.725Z,88.00
2018-05-27T02:20:53.246Z,88.40
2018-05-27T02:23:20.777Z,88.40
2018-05-27T02:25:48.301Z,88.50
2018-05-27T02:28:15.849Z,88.80
2018-05-27T02:30:44.129Z,88.60
2018-05-27T02:33:12.437Z,88.80
2018-05-27T02:35:40.015Z,88.80
2018-05-27T02:38:07.677Z,88.70
2018-05-27T02:40:35.208Z,89.30
2018-05-27T02:43:03.514Z,89.50
2018-05-27T02:45:31.046Z,89.50
2018-05-27T02:47:59.366Z,90.20
2018-05-27T02:50:27.238Z,90.00
2018-05-27T02:52:54.770Z,90.10
2018-05-27T02:55:23.071Z,90.20
2018-05-27T02:57:50.608Z,90.20
2018-05-27T03:00:18.946Z,90.40
2018-05-27T03:02:46.499Z,90.30
2018-05-27T03:05:14.035Z,90.30
2018-05-27T03:07:41.601Z,90.40
2018-05-27T03:10:09.898Z,90.40
2018-05-27T03:12:37.441Z,90.40
2018-05-27T03:15:05.736Z,90.40
2018-05-27T03:17:33.279Z,90.40
2018-05-27T03:20:01.585Z,90.50
2018-05-27T03:22:29.127Z,90.50
2018-05-27T03:24:57.433Z,90.70
2018-05-27T03:27:24.966Z,90.60
2018-05-27T03:29:52.527Z,90.60
2018-05-27T03:32:20.045Z,90.60
2018-05-27T03:34:47.591Z,90.60
2018-05-27T03:37:15.103Z,90.50
2018-05-27T03:39:43.393Z,90.50
2018-05-27T03:42:10.933Z,90.40
2018-05-27T03:44:38.453Z,90.50
2018-05-27T03:47:06.758Z,90.30
2018-05-27T03:49:34.284Z,90.30
2018-05-27T03:52:02.605Z,90.30
2018-05-27T03:54:30.127Z,90.30
2018-05-27T03:56:58.441Z,90.50
2018-05-27T03:59:25.978Z,90.50
2018-05-27T04:01:54.339Z,90.70
2018-05-27T04:04:33.727Z,90.70
2018-05-27T04:07:13.365Z,90.90
2018-05-27T04:09:40.904Z,91.40
2018-05-27T04:12:09.187Z,91.60
2018-05-27T04:14:37.496Z,91.60
2018-05-27T04:17:05.035Z,91.60
2018-05-27T04:19:33.332Z,92.10
2018-05-27T04:22:00.876Z,92.10
2018-05-27T04:24:29.176Z,92.90
2018-05-27T04:26:56.846Z,92.90
2018-05-27T04:29:25.205Z,93.00
2018-05-27T04:31:53.510Z,92.90
2018-05-27T04:34:21.051Z,92.90
2018-05-27T04:36:49.345Z,92.90
2018-05-27T04:39:16.892Z,92.90
2018-05-27T04:41:45.305Z,93.00
2018-05-27T04:44:12.844Z,92.90
2018-05-27T04:46:41.168Z,92.80
2018-05-27T04:49:08.713Z,92.80
2018-05-27T04:51:36.284Z,92.50
2018-05-27T04:54:03.807Z,92.60
2018-05-27T04:56:31.361Z,92.50
2018-05-27T04:58:59.692Z,92.60
2018-05-27T05:01:27.243Z,92.40
2018-05-27T05:03:54.768Z,92.50
2018-05-27T05:06:23.053Z,92.60
2018-05-27T05:08:50.639Z,92.60
2018-05-27T05:11:18.962Z,92.30
2018-05-27T05:13:46.518Z,92.20
2018-05-27T05:16:14.041Z,92.60
2018-05-27T05:18:42.352Z,92.80
2018-05-27T05:21:09.880Z,92.60
2018-05-27T05:23:37.398Z,92.50
2018-05-27T05:26:04.939Z,92.30
2018-05-27T05:28:32.481Z,91.70
2018-05-27T05:31:00.825Z,91.60
2018-05-27T05:33:28.347Z,91.60
2018-05-27T05:35:55.907Z,91.20
2018-05-27T05:38:23.420Z,91.50
2018-05-27T05:40:50.938Z,91.30
2018-05-27T05:43:18.520Z,90.80
2018-05-27T05:45:46.029Z,90.70
2018-05-27T05:48:13.595Z,91.00
2018-05-27T05:50:41.126Z,90.50
2018-05-27T05:53:08.651Z,90.70
2018-05-27T05:55:37.052Z,90.50
2018-05-27T05:58:04.620Z,90.50
2018-05-27T06:00:32.180Z,90.90
2018-05-27T06:02:59.696Z,91.20
2018-05-27T06:05:27.308Z,90.70
2018-05-27T06:07:54.838Z,90.70
2018-05-27T06:10:23.163Z,90.90
2018-05-27T06:12:50.694Z,90.90
2018-05-27T06:15:18.991Z,90.50
2018-05-27T06:17:46.520Z,90.40
2018-05-27T06:20:14.038Z,90.30
2018-05-27T06:22:41.697Z,89.60
2018-05-27T06:25:09.224Z,90.20
2018-05-27T06:27:37.530Z,90.00
2018-05-27T06:30:05.092Z,90.00
2018-05-27T06:32:32.612Z,89.10
2018-05-27T06:35:00.235Z,88.00
2018-05-27T06:37:27.765Z,88.00
2018-05-27T06:39:56.183Z,89.30
2018-05-27T06:42:23.710Z,89.30
2018-05-27T06:44:51.240Z,87.30
2018-05-27T06:47:18.880Z,87.30
2018-05-27T06:49:46.541Z,88.90
2018-05-27T06:52:14.108Z,87.10
2018-05-27T06:54:41.651Z,87.10
2018-05-27T06:57:09.974Z,86.80
2018-05-27T06:59:37.495Z,86.80
2018-05-27T07:02:05.774Z,85.80
2018-05-27T07:04:34.148Z,84.10
2018-05-27T07:07:01.745Z,84.10
2018-05-27T07:09:29.287Z,85.40
2018-05-27T07:11:57.576Z,85.30
2018-05-27T07:14:25.123Z,85.30
2018-05-27T07:16:53.417Z,78.90
2018-05-27T07:19:21.735Z,78.20
2018-05-27T07:21:49.287Z,78.20
2018-05-27T07:24:16.854Z,78.90
2018-05-27T07:26:44.391Z,78.90
2018-05-27T07:29:12.671Z,74.90
2018-05-27T07:31:40.978Z,75.70
2018-05-27T07:34:08.510Z,75.50
2018-05-27T07:36:36.826Z,74.60
2018-05-27T07:39:04.402Z,74.60
2018-05-27T07:41:31.950Z,75.20
2018-05-27T07:43:59.500Z,75.70
2018-05-27T07:46:27.024Z,73.10
2018-05-27T07:48:54.572Z,75.50
2018-05-27T07:51:22.097Z,75.10
2018-05-27T07:53:49.646Z,74.70
2018-05-27T07:56:17.964Z,75.50
2018-05-27T07:58:45.517Z,75.40
2018-05-27T08:01:13.045Z,73.60
2018-05-27T08:03:41.365Z,75.70
2018-05-27T08:06:08.919Z,75.70
2018-05-27T08:08:36.462Z,77.10
2018-05-27T08:11:04.876Z,75.60
2018-05-27T08:13:32.413Z,75.60
2018-05-27T08:16:00.745Z,75.10
2018-05-27T08:18:28.385Z,75.00
2018-05-27T08:20:55.953Z,72.70
2018-05-27T08:23:23.500Z,72.00
2018-05-27T08:25:51.060Z,72.80
2018-05-27T08:28:18.611Z,69.10
2018-05-27T08:30:46.929Z,72.50
2018-05-27T08:33:14.489Z,72.50
2018-05-27T08:35:42.023Z,71.70
2018-05-27T08:38:10.571Z,71.40
2018-05-27T08:40:38.103Z,70.90
2018-05-27T08:43:05.634Z,71.20
2018-05-27T08:45:33.955Z,73.50
2018-05-27T08:48:01.500Z,73.50
2018-05-27T08:50:29.046Z,71.80
2018-05-27T08:52:57.362Z,70.80
2018-05-27T08:55:24.927Z,70.80
2018-05-27T08:57:52.486Z,72.70
2018-05-27T09:00:20.122Z,72.10
2018-05-27T09:02:48.438Z,71.70
2018-05-27T09:05:15.980Z,71.70
2018-05-27T09:07:44.384Z,71.10
2018-05-27T09:10:11.946Z,71.20
2018-05-27T09:12:40.295Z,70.20
2018-05-27T09:15:08.723Z,71.50
2018-05-27T09:17:36.278Z,71.50
2018-05-27T09:20:03.822Z,71.30
2018-05-27T09:22:32.114Z,72.10
2018-05-27T09:24:59.670Z,72.10
2018-05-27T09:27:27.261Z,71.50
2018-05-27T09:29:54.818Z,68.90
2018-05-27T09:32:22.485Z,71.10
2018-05-27T09:34:50.023Z,70.90
2018-05-27T09:37:18.337Z,71.40
2018-05-27T09:39:45.897Z,71.40
2018-05-27T09:42:13.463Z,71.30
2018-05-27T09:44:41.016Z,71.90
2018-05-27T09:47:08.593Z,71.50
2018-05-27T09:49:36.151Z,70.70
2018-05-27T09:52:03.673Z,68.80
2018-05-27T09:54:31.239Z,70.70
2018-05-27T09:56:58.793Z,67.40
2018-05-27T09:59:26.341Z,69.40
2018-05-27T10:01:53.893Z,70.30
2018-05-27T10:04:21.437Z,70.60
2018-05-27T10:06:49.003Z,68.70
2018-05-27T10:09:16.519Z,69.00
2018-05-27T10:11:44.095Z,68.20
2018-05-27T10:14:12.396Z,73.00
2018-05-27T10:16:40.694Z,70.50
2018-05-27T10:19:08.224Z,70.40
2018-05-27T10:21:36.545Z,66.90
2018-05-27T10:24:04.124Z,66.90
2018-05-27T10:26:31.695Z,68.80
2018-05-27T10:28:59.236Z,70.00
2018-05-27T10:31:26.812Z,72.30
2018-05-27T10:33:54.334Z,69.10
2018-05-27T10:36:22.622Z,68.40
2018-05-27T10:38:51.037Z,66.10
2018-05-27T10:41:18.692Z,66.70
2018-05-27T10:43:46.243Z,66.00
2018-05-27T10:46:14.538Z,68.40
2018-05-27T10:48:42.086Z,68.40
2018-05-27T10:51:09.623Z,66.40
2018-05-27T10:53:37.136Z,64.50
2018-05-27T10:56:04.689Z,67.50
2018-05-27T10:58:32.215Z,67.20
2018-05-27T11:00:59.762Z,67.50
2018-05-27T11:03:27.288Z,64.60
2018-05-27T11:05:54.904Z,64.40
2018-05-27T11:08:22.418Z,66.00
2018-05-27T11:10:49.981Z,66.50
2018-05-27T11:13:17.521Z,67.40
2018-05-27T11:15:45.932Z,62.70
2018-05-27T11:18:13.476Z,62.60
2018-05-27T11:20:41.802Z,63.40
2018-05-27T11:23:09.353Z,63.40
2018-05-27T11:25:36.902Z,63.60
2018-05-27T11:28:04.427Z,64.40
2018-05-27T11:30:31.973Z,64.20
2018-05-27T11:32:59.499Z,65.00
2018-05-27T11:35:27.092Z,65.10
2018-05-27T11:37:54.618Z,65.10
2018-05-27T11:40:22.167Z,64.70
2018-05-27T11:42:50.480Z,63.10
2018-05-27T11:45:18.005Z,63.00
2018-05-27T11:47:46.339Z,62.30
2018-05-27T11:50:13.894Z,62.30
2018-05-27T11:52:41.448Z,60.90
2018-05-27T11:55:09.008Z,61.50
2018-05-27T11:57:36.554Z,61.20
2018-05-27T12:00:04.113Z,61.10
2018-05-27T12:02:32.424Z,63.30
2018-05-27T12:04:59.988Z,63.20
2018-05-27T12:07:27.507Z,63.60
2018-05-27T12:09:55.822Z,64.00
2018-05-27T12:12:23.370Z,63.50
2018-05-27T12:14:51.692Z,62.40
2018-05-27T12:17:19.219Z,62.40
2018-05-27T12:19:47.535Z,60.70
2018-05-27T12:22:15.082Z,60.70
2018-05-27T12:24:42.635Z,60.90
2018-05-27T12:27:10.217Z,61.60
2018-05-27T12:29:37.763Z,61.70
2018-05-27T12:32:06.170Z,62.40
2018-05-27T12:34:33.702Z,62.40
2018-05-27T12:37:02.007Z,63.20
2018-05-27T12:39:29.539Z,63.20
2018-05-27T12:41:57.823Z,61.90
2018-05-27T12:44:26.234Z,62.50
2018-05-27T12:49:27.799Z,63.20
2018-05-27T12:51:55.325Z,63.20
2018-05-27T12:54:22.869Z,61.40
2018-05-27T12:56:50.427Z,62.80
2018-05-27T12:59:17.953Z,61.80
2018-05-27T13:01:45.503Z,60.80
2018-05-27T13:04:13.797Z,60.20
2018-05-27T13:06:41.347Z,60.20
2018-05-27T13:09:09.649Z,58.70
2018-05-27T13:11:37.331Z,58.70
2018-05-27T13:14:04.854Z,59.40
2018-05-27T13:16:33.240Z,60.00
2018-05-27T13:19:00.755Z,59.20
2018-05-27T13:21:28.292Z,61.90
2018-05-27T13:23:55.867Z,62.60
2018-05-27T13:26:23.397Z,59.90
2018-05-27T13:28:51.704Z,65.10
2018-05-27T13:31:19.249Z,65.20
2018-05-27T13:33:47.546Z,62.30
2018-05-27T13:36:15.141Z,62.30
2018-05-27T13:38:42.677Z,61.20
2018-05-27T13:41:10.232Z,61.40
2018-05-27T13:43:38.522Z,56.90
2018-05-27T13:46:06.056Z,56.90
2018-05-27T13:48:34.373Z,57.40
2018-05-27T13:51:01.904Z,57.40
2018-05-27T13:53:30.208Z,52.80
2018-05-27T13:55:57.733Z,52.90
2018-05-27T13:58:25.277Z,56.70
2018-05-27T14:00:52.820Z,55.20
2018-05-27T14:03:20.392Z,54.30
2018-05-27T14:05:47.923Z,56.20
2018-05-27T14:08:16.225Z,56.20
2018-05-27T14:10:43.771Z,56.20
2018-05-27T14:13:11.301Z,57.00
2018-05-27T14:15:38.888Z,58.00
2018-05-27T14:18:07.183Z,55.30
2018-05-27T14:20:35.479Z,57.90
2018-05-27T14:23:03.028Z,57.90
2018-05-27T14:25:30.597Z,57.60
2018-05-27T14:27:58.151Z,60.00
2018-05-27T14:30:26.437Z,58.20
2018-05-27T14:32:54.171Z,58.10
2018-05-27T14:35:21.730Z,59.20
2018-05-27T14:37:49.263Z,59.10
2018-05-27T14:40:16.814Z,57.70
2018-05-27T14:42:44.348Z,57.30
2018-05-27T14:45:12.641Z,56.90
2018-05-27T14:47:40.207Z,56.80
2018-05-27T14:50:08.502Z,59.20
2018-05-27T14:52:36.068Z,59.10
2018-05-27T14:55:03.614Z,57.20
2018-05-27T14:57:31.908Z,56.00
2018-05-27T14:59:59.481Z,55.90
2018-05-27T15:02:27.004Z,56.00
2018-05-27T15:04:55.341Z,57.10
2018-05-27T15:07:22.907Z,56.30
2018-05-27T15:09:50.462Z,55.30
2018-05-27T15:12:18.053Z,55.10
2018-05-27T15:14:45.619Z,55.30
2018-05-27T15:17:13.165Z,54.70
2018-05-27T15:19:40.721Z,56.70
2018-05-27T15:22:08.239Z,56.80
2018-05-27T15:24:36.565Z,59.20
2018-05-27T15:27:04.103Z,59.20
2018-05-27T15:29:32.422Z,60.10
2018-05-27T15:31:59.973Z,60.10
2018-05-27T15:34:27.505Z,61.80
2018-05-27T15:36:55.816Z,64.10
2018-05-27T15:39:23.347Z,64.10
2018-05-27T15:41:51.667Z,63.70
2018-05-27T15:44:19.196Z,63.60
2018-05-27T15:46:47.478Z,67.50
2018-05-27T15:49:15.792Z,68.20
2018-05-27T15:51:43.348Z,68.20
2018-05-27T15:54:10.898Z,66.20
2018-05-27T15:56:39.192Z,63.80
2018-05-27T15:59:06.742Z,63.80
2018-05-27T16:01:35.144Z,66.30
2018-05-27T16:04:02.713Z,66.20
2018-05-27T16:06:30.376Z,66.70
2018-05-27T16:08:57.897Z,64.70
2018-05-27T16:11:26.210Z,63.10
2018-05-27T16:13:53.889Z,63.10
2018-05-27T16:16:21.426Z,66.30
2018-05-27T16:18:49.836Z,65.90
2018-05-27T16:21:17.385Z,65.80
2018-05-27T16:23:45.715Z,66.40
2018-05-27T16:26:13.351Z,66.40
2018-05-27T16:28:40.867Z,63.50
2018-05-27T16:31:09.298Z,63.70
2018-05-27T16:33:36.831Z,64.10
2018-05-27T16:36:05.243Z,65.60
2018-05-27T16:38:32.785Z,65.50
2018-05-27T16:41:01.076Z,63.60
2018-05-27T16:43:28.629Z,63.60
2018-05-27T16:45:56.925Z,65.80
2018-05-27T16:48:24.494Z,65.60
2018-05-27T16:50:52.041Z,65.40
2018-05-27T16:53:20.383Z,64.60
2018-05-27T16:55:47.946Z,64.60
2018-05-27T16:58:15.476Z,65.30
2018-05-27T17:00:43.006Z,65.20
2018-05-27T17:03:11.296Z,65.10
2018-05-27T17:05:39.620Z,65.50
2018-05-27T17:08:07.166Z,65.50
2018-05-27T17:10:34.742Z,64.60
2018-05-27T17:13:02.296Z,65.10
2018-05-27T17:15:29.863Z,64.20
2018-05-27T17:17:57.414Z,65.40
2018-05-27T17:20:25.013Z,64.90
2018-05-27T17:22:52.578Z,63.70
2018-05-27T17:25:20.101Z,61.50
2018-05-27T17:27:47.662Z,61.40
2018-05-27T17:30:15.188Z,61.50
2018-05-27T17:32:42.715Z,61.40
2018-05-27T17:35:10.279Z,61.30
2018-05-27T17:37:37.946Z,61.70
2018-05-27T17:40:05.514Z,61.90
2018-05-27T17:42:33.032Z,61.30
2018-05-27T17:45:01.380Z,61.90
2018-05-27T17:47:28.923Z,61.90
2018-05-27T17:49:56.460Z,62.40
2018-05-27T17:52:24.791Z,62.20
2018-05-27T17:54:52.358Z,62.20
2018-05-27T17:57:19.945Z,62.90
2018-05-27T17:59:47.489Z,63.40
2018-05-27T18:02:15.046Z,62.60
2018-05-27T18:04:43.577Z,62.40
2018-05-27T18:07:11.891Z,63.00
2018-05-27T18:09:39.471Z,63.00
2018-05-27T18:12:07.119Z,63.10
2018-05-27T18:14:34.787Z,62.20
2018-05-27T18:17:02.352Z,62.50
2018-05-27T18:19:30.021Z,62.90
2018-05-27T18:21:57.549Z,64.70
2018-05-27T18:24:25.968Z,65.10
2018-05-27T18:26:53.524Z,65.60
2018-05-27T18:29:21.104Z,64.70
2018-05-27T18:31:49.442Z,65.70
2018-05-27T18:34:17.008Z,65.70
2018-05-27T18:36:45.425Z,66.50
2018-05-27T18:39:13.085Z,66.20
2018-05-27T18:41:40.657Z,65.00
2018-05-27T18:44:08.258Z,65.10
2018-05-27T18:46:36.469Z,64.80
2018-05-27T18:49:05.399Z,65.00
2018-05-27T18:51:32.966Z,64.90
2018-05-27T18:54:00.732Z,65.00
2018-05-27T18:56:28.400Z,64.70
2018-05-27T18:58:55.963Z,64.80
2018-05-27T19:01:23.630Z,64.70
2018-05-27T19:03:51.914Z,65.10
2018-05-27T19:06:19.597Z,64.70
2018-05-27T19:08:47.181Z,65.60
2018-05-27T19:11:14.776Z,65.80
2018-05-27T19:13:43.298Z,66.10
2018-05-27T19:16:11.099Z,66.10
2018-05-27T19:18:39.075Z,67.20
2018-05-27T19:21:07.483Z,66.50
2018-05-27T19:23:35.912Z,66.30
2018-05-27T19:26:03.619Z,66.00
2018-05-27T19:28:31.244Z,66.20
2018-05-27T19:30:58.910Z,66.50
2018-05-27T19:33:26.496Z,66.40
2018-05-27T19:35:54.145Z,66.00
2018-05-27T19:38:21.807Z,67.30
2018-05-27T19:40:49.400Z,67.80
2018-05-27T19:43:17.055Z,68.10
2018-05-27T19:45:44.708Z,67.50
2018-05-27T19:48:12.343Z,67.40
2018-05-27T19:50:40.711Z,68.10
2018-05-27T19:53:09.140Z,68.80
2018-05-27T19:55:37.601Z,68.60
2018-05-27T19:58:06.736Z,68.90
2018-05-27T20:00:35.080Z,68.90
2018-05-27T20:03:03.500Z,68.50
2018-05-27T20:05:31.673Z,68.50
2018-05-27T20:07:59.932Z,69.10
2018-05-27T20:10:27.569Z,67.90
2018-05-27T20:12:55.199Z,68.90
2018-05-27T20:15:22.964Z,68.50
2018-05-27T20:17:50.617Z,67.00
2018-05-27T20:20:18.250Z,67.20
2018-05-27T20:22:47.224Z,67.50
2018-05-27T20:25:14.950Z,67.50
2018-05-27T20:27:42.572Z,69.10
2018-05-27T20:30:10.205Z,67.80
2018-05-27T20:32:37.847Z,68.30
2018-05-27T20:35:05.409Z,69.00
2018-05-27T20:37:33.024Z,68.80
2018-05-27T20:40:00.605Z,70.40
2018-05-27T20:42:28.167Z,71.10
2018-05-27T20:44:55.734Z,71.70
2018-05-27T20:47:23.287Z,72.60
2018-05-27T20:49:50.848Z,73.30
2018-05-27T20:52:18.689Z,74.00
2018-05-27T20:54:46.255Z,75.20
2018-05-27T20:57:13.900Z,75.60
2018-05-27T20:59:41.569Z,75.70
2018-05-27T21:02:09.146Z,75.50
2018-05-27T21:04:36.689Z,76.00
2018-05-27T21:07:04.283Z,76.00
2018-05-27T21:09:31.934Z,75.50
2018-05-27T21:11:59.603Z,74.70
2018-05-27T21:14:27.138Z,74.90
2018-05-27T21:16:55.449Z,74.30
2018-05-27T21:19:23.010Z,74.30
2018-05-27T21:21:50.672Z,74.30
2018-05-27T21:24:18.206Z,73.90
2018-05-27T21:26:46.499Z,72.80
2018-05-27T21:29:14.067Z,72.80
2018-05-27T21:31:41.652Z,72.80
2018-05-27T21:34:09.207Z,72.00
2018-05-27T21:36:36.740Z,71.90
2018-05-27T21:39:05.864Z,71.90
2018-05-27T21:41:33.464Z,71.90
2018-05-27T21:44:00.992Z,72.10
2018-05-27T21:46:28.529Z,72.40
2018-05-27T21:48:56.051Z,73.00
2018-05-27T21:51:23.631Z,72.70
2018-05-27T21:53:51.161Z,72.70
2018-05-27T21:56:18.709Z,73.00
2018-05-27T21:58:47.061Z,73.40
2018-05-27T22:01:15.499Z,73.70
2018-05-27T22:03:43.038Z,73.70
2018-05-27T22:06:11.339Z,73.90
2018-05-27T22:08:38.910Z,73.90
2018-05-27T22:11:06.455Z,74.20
2018-05-27T22:13:34.029Z,74.10
2018-05-27T22:16:01.569Z,74.30
2018-05-27T22:18:29.893Z,74.90
2018-05-27T22:20:57.429Z,74.80
2018-05-27T22:23:25.005Z,75.00
2018-05-27T22:25:52.569Z,74.80
2018-05-27T22:28:20.097Z,75.30
2018-05-27T22:30:47.635Z,75.10
2018-05-27T22:33:15.161Z,75.00
2018-05-27T22:35:42.677Z,74.80
2018-05-27T22:38:10.265Z,75.50
2018-05-27T22:40:38.675Z,77.20
2018-05-27T22:43:06.239Z,76.70
2018-05-27T22:45:33.768Z,76.70
2018-05-27T22:48:02.199Z,77.10
2018-05-27T22:50:29.756Z,77.10
2018-05-27T22:52:57.276Z,77.40
2018-05-27T22:55:25.593Z,78.60
2018-05-27T22:57:53.127Z,78.50
2018-05-27T23:00:20.679Z,78.70
2018-05-27T23:02:48.208Z,78.80
2018-05-27T23:05:15.743Z,78.80
2018-05-27T23:07:43.303Z,79.40
2018-05-27T23:10:10.849Z,79.30
2018-05-27T23:12:39.164Z,79.70
2018-05-27T23:15:06.708Z,79.70
2018-05-27T23:17:35.016Z,79.90
2018-05-27T23:20:02.576Z,79.80
2018-05-27T23:22:30.241Z,80.00
2018-05-27T23:24:57.757Z,80.00
2018-05-27T23:27:25.275Z,80.40
2018-05-27T23:29:52.822Z,80.50
2018-05-27T23:32:21.218Z,80.40
2018-05-27T23:34:48.762Z,80.50
2018-05-27T23:37:16.292Z,80.80
2018-05-27T23:39:43.849Z,80.90
2018-05-27T23:42:11.381Z,80.60
2018-05-27T23:44:38.933Z,80.40
2018-05-27T23:47:06.502Z,81.00
2018-05-27T23:49:34.082Z,80.60
2018-05-27T23:52:01.637Z,81.00
2018-05-27T23:54:29.196Z,80.70
2018-05-27T23:56:56.743Z,80.50
2018-05-27T23:59:25.149Z,81.40
